sensor_id;sensor_type;location;lat;lon;timestamp;P1;durP1;ratioP1;P2;durP2;ratioP2
16133;SDS011;8172;45.018;5.972;2023-04-06T13:20:08;2.00;;;0.73;;
16133;SDS011;8172;45.018;5.972;2023-04-06T13:25:16;0.87;;;0.87;;
16133;SDS011;8172;45.018;5.972;2023-04-06T13:30:24;1.20;;;1.10;;
16133;SDS011;8172;45.018;5.972;2023-04-06T13:39:13;1.30;;;1.13;;
16133;SDS011;8172;45.018;5.972;2023-04-06T13:44:21;1.60;;;1.10;;
16133;SDS011;8172;45.018;5.972;2023-04-06T13:49:29;1.80;;;1.50;;
16133;SDS011;8172;45.018;5.972;2023-04-06T13:54:38;1.80;;;1.33;;
16133;SDS011;8172;45.018;5.972;2023-04-06T13:59:51;1.90;;;1.70;;
16133;SDS011;8172;45.018;5.972;2023-04-06T14:05:01;2.03;;;1.67;;
16133;SDS011;8172;45.018;5.972;2023-04-06T14:10:09;2.57;;;1.70;;
16133;SDS011;8172;45.018;5.972;2023-04-06T14:15:20;1.77;;;1.60;;
16133;SDS011;8172;45.018;5.972;2023-04-06T14:20:28;2.30;;;1.77;;
16133;SDS011;8172;45.018;5.972;2023-04-06T14:25:38;3.37;;;1.73;;
16133;SDS011;8172;45.018;5.972;2023-04-06T14:30:46;3.23;;;1.90;;
16133;SDS011;8172;45.018;5.972;2023-04-06T14:35:55;2.27;;;1.67;;
16133;SDS011;8172;45.018;5.972;2023-04-06T14:41:03;4.73;;;2.10;;
16133;SDS011;8172;45.018;5.972;2023-04-06T14:46:11;2.50;;;1.90;;
16133;SDS011;8172;45.018;5.972;2023-04-06T14:51:20;2.70;;;1.93;;
16133;SDS011;8172;45.018;5.972;2023-04-06T14:56:28;2.27;;;2.07;;
16133;SDS011;8172;45.018;5.972;2023-04-06T15:01:37;2.60;;;1.73;;
16133;SDS011;8172;45.018;5.972;2023-04-06T15:06:45;2.80;;;2.40;;
16133;SDS011;8172;45.018;5.972;2023-04-06T15:11:54;3.53;;;2.40;;
16133;SDS011;8172;45.018;5.972;2023-04-06T15:17:02;3.57;;;2.50;;
16133;SDS011;8172;45.018;5.972;2023-04-06T15:22:10;3.00;;;2.60;;
16133;SDS011;8172;45.018;5.972;2023-04-06T15:27:21;4.03;;;2.80;;
16133;SDS011;8172;45.018;5.972;2023-04-06T15:32:30;3.27;;;2.70;;
16133;SDS011;8172;45.018;5.972;2023-04-06T15:37:38;4.83;;;3.43;;
16133;SDS011;8172;45.018;5.972;2023-04-06T15:42:46;4.87;;;2.90;;
16133;SDS011;8172;45.018;5.972;2023-04-06T15:47:54;3.90;;;3.20;;
16133;SDS011;8172;45.018;5.972;2023-04-06T15:53:02;4.27;;;2.90;;
16133;SDS011;8172;45.018;5.972;2023-04-06T15:58:12;4.00;;;2.80;;
16133;SDS011;8172;45.018;5.972;2023-04-06T16:03:20;5.17;;;2.93;;
16133;SDS011;8172;45.018;5.972;2023-04-06T16:08:29;4.10;;;2.77;;
16133;SDS011;8172;45.018;5.972;2023-04-06T16:13:37;5.13;;;2.77;;
16133;SDS011;8172;45.018;5.972;2023-04-06T16:18:47;5.10;;;2.93;;
16133;SDS011;8172;45.018;5.972;2023-04-06T16:23:57;3.97;;;2.50;;
16133;SDS011;8172;45.018;5.972;2023-04-06T16:29:07;3.20;;;2.60;;
16133;SDS011;8172;45.018;5.972;2023-04-06T16:34:19;3.17;;;2.53;;
16133;SDS011;8172;45.018;5.972;2023-04-06T16:39:27;3.27;;;2.47;;
16133;SDS011;8172;45.018;5.972;2023-04-06T16:44:35;3.67;;;2.30;;
16133;SDS011;8172;45.018;5.972;2023-04-06T16:49:44;4.60;;;2.23;;
16133;SDS011;8172;45.018;5.972;2023-04-06T16:54:52;3.23;;;2.40;;
16133;SDS011;8172;45.018;5.972;2023-04-06T17:00:00;2.77;;;2.40;;
16133;SDS011;8172;45.018;5.972;2023-04-06T17:05:10;3.70;;;2.40;;
16133;SDS011;8172;45.018;5.972;2023-04-06T17:10:20;2.53;;;2.00;;
16133;SDS011;8172;45.018;5.972;2023-04-06T17:15:30;3.43;;;1.90;;
16133;SDS011;8172;45.018;5.972;2023-04-06T17:20:39;4.20;;;2.20;;
16133;SDS011;8172;45.018;5.972;2023-04-06T17:25:48;1.97;;;1.70;;
16133;SDS011;8172;45.018;5.972;2023-04-06T17:30:59;3.30;;;2.10;;
16133;SDS011;8172;45.018;5.972;2023-04-06T17:36:07;3.23;;;1.90;;
16133;SDS011;8172;45.018;5.972;2023-04-06T17:41:17;2.40;;;2.10;;
16133;SDS011;8172;45.018;5.972;2023-04-06T17:46:27;3.50;;;1.80;;
16133;SDS011;8172;45.018;5.972;2023-04-06T17:51:36;4.13;;;2.07;;
16133;SDS011;8172;45.018;5.972;2023-04-06T17:56:45;1.97;;;1.77;;
16133;SDS011;8172;45.018;5.972;2023-04-06T18:01:54;3.37;;;1.70;;
16133;SDS011;8172;45.018;5.972;2023-04-06T18:07:03;2.70;;;1.90;;
16133;SDS011;8172;45.018;5.972;2023-04-06T18:12:13;2.83;;;1.57;;
16133;SDS011;8172;45.018;5.972;2023-04-06T18:17:24;2.20;;;1.70;;
16133;SDS011;8172;45.018;5.972;2023-04-06T18:22:33;3.57;;;1.77;;
16133;SDS011;8172;45.018;5.972;2023-04-06T18:27:43;2.37;;;1.73;;
16133;SDS011;8172;45.018;5.972;2023-04-06T18:32:53;2.30;;;1.80;;
16133;SDS011;8172;45.018;5.972;2023-04-06T18:38:01;3.37;;;1.47;;
16133;SDS011;8172;45.018;5.972;2023-04-06T18:43:09;2.20;;;1.40;;
16133;SDS011;8172;45.018;5.972;2023-04-06T18:48:17;1.70;;;1.33;;
16133;SDS011;8172;45.018;5.972;2023-04-06T18:53:25;2.30;;;1.50;;
16133;SDS011;8172;45.018;5.972;2023-04-06T18:58:34;2.63;;;1.60;;
16133;SDS011;8172;45.018;5.972;2023-04-06T19:03:43;2.00;;;1.50;;
16133;SDS011;8172;45.018;5.972;2023-04-06T19:08:53;2.63;;;1.83;;
16133;SDS011;8172;45.018;5.972;2023-04-06T19:14:02;2.53;;;1.60;;
16133;SDS011;8172;45.018;5.972;2023-04-06T19:19:11;3.57;;;1.70;;
16133;SDS011;8172;45.018;5.972;2023-04-06T19:24:22;3.43;;;2.00;;
16133;SDS011;8172;45.018;5.972;2023-04-06T19:29:32;2.20;;;1.70;;
16133;SDS011;8172;45.018;5.972;2023-04-06T19:34:46;2.40;;;1.47;;
16133;SDS011;8172;45.018;5.972;2023-04-06T19:39:55;3.53;;;1.90;;
16133;SDS011;8172;45.018;5.972;2023-04-06T19:45:07;3.70;;;1.70;;
16133;SDS011;8172;45.018;5.972;2023-04-06T19:50:16;4.73;;;2.30;;
16133;SDS011;8172;45.018;5.972;2023-04-06T19:55:27;5.57;;;2.10;;
16133;SDS011;8172;45.018;5.972;2023-04-06T20:00:36;2.73;;;2.00;;
16133;SDS011;8172;45.018;5.972;2023-04-06T20:05:45;2.33;;;1.80;;
16133;SDS011;8172;45.018;5.972;2023-04-06T20:16:11;2.20;;;1.83;;
16133;SDS011;8172;45.018;5.972;2023-04-06T20:21:21;1.90;;;1.70;;
16133;SDS011;8172;45.018;5.972;2023-04-06T20:26:29;1.87;;;1.40;;
16133;SDS011;8172;45.018;5.972;2023-04-06T20:31:38;4.17;;;1.93;;
16133;SDS011;8172;45.018;5.972;2023-04-06T20:36:48;3.47;;;1.80;;
16133;SDS011;8172;45.018;5.972;2023-04-06T20:41:57;2.97;;;1.70;;
16133;SDS011;8172;45.018;5.972;2023-04-06T20:47:06;2.10;;;1.80;;
16133;SDS011;8172;45.018;5.972;2023-04-06T20:52:15;2.40;;;1.50;;
16133;SDS011;8172;45.018;5.972;2023-04-06T20:57:27;1.80;;;1.50;;
16133;SDS011;8172;45.018;5.972;2023-04-06T21:02:37;1.97;;;1.73;;
16133;SDS011;8172;45.018;5.972;2023-04-06T21:07:46;2.23;;;1.40;;
16133;SDS011;8172;45.018;5.972;2023-04-06T21:12:54;1.73;;;1.50;;
16133;SDS011;8172;45.018;5.972;2023-04-06T21:18:06;2.60;;;1.73;;
16133;SDS011;8172;45.018;5.972;2023-04-06T21:23:15;3.43;;;1.63;;
16133;SDS011;8172;45.018;5.972;2023-04-06T21:28:23;2.63;;;1.80;;
16133;SDS011;8172;45.018;5.972;2023-04-06T21:33:33;2.23;;;1.70;;
16133;SDS011;8172;45.018;5.972;2023-04-06T21:38:42;1.77;;;1.67;;
16133;SDS011;8172;45.018;5.972;2023-04-06T21:43:50;2.67;;;1.80;;
16133;SDS011;8172;45.018;5.972;2023-04-06T21:48:59;2.40;;;1.70;;
16133;SDS011;8172;45.018;5.972;2023-04-06T21:54:07;3.50;;;1.97;;
16133;SDS011;8172;45.018;5.972;2023-04-06T21:59:17;2.90;;;1.80;;
16133;SDS011;8172;45.018;5.972;2023-04-06T22:04:26;2.43;;;1.70;;
16133;SDS011;8172;45.018;5.972;2023-04-06T22:09:34;2.03;;;1.47;;
16133;SDS011;8172;45.018;5.972;2023-04-06T22:14:42;2.20;;;1.50;;
16133;SDS011;8172;45.018;5.972;2023-04-06T22:19:51;3.30;;;1.60;;
16133;SDS011;8172;45.018;5.972;2023-04-06T22:25:03;1.83;;;1.33;;
16133;SDS011;8172;45.018;5.972;2023-04-06T22:30:12;2.07;;;1.40;;
16133;SDS011;8172;45.018;5.972;2023-04-06T22:35:20;1.93;;;1.50;;
16133;SDS011;8172;45.018;5.972;2023-04-06T22:40:30;1.90;;;1.40;;
16133;SDS011;8172;45.018;5.972;2023-04-06T22:45:38;1.83;;;1.30;;
16133;SDS011;8172;45.018;5.972;2023-04-06T22:50:46;1.77;;;1.50;;
16133;SDS011;8172;45.018;5.972;2023-04-06T22:55:56;2.10;;;1.30;;
16133;SDS011;8172;45.018;5.972;2023-04-06T23:01:04;1.73;;;1.30;;
16133;SDS011;8172;45.018;5.972;2023-04-06T23:06:12;1.53;;;1.30;;
16133;SDS011;8172;45.018;5.972;2023-04-06T23:11:21;1.30;;;1.20;;
16133;SDS011;8172;45.018;5.972;2023-04-06T23:16:29;1.40;;;1.30;;
16133;SDS011;8172;45.018;5.972;2023-04-06T23:21:37;2.47;;;1.40;;
16133;SDS011;8172;45.018;5.972;2023-04-06T23:26:45;1.70;;;1.20;;
16133;SDS011;8172;45.018;5.972;2023-04-06T23:31:53;2.13;;;1.50;;
16133;SDS011;8172;45.018;5.972;2023-04-06T23:37:01;2.00;;;1.50;;
16133;SDS011;8172;45.018;5.972;2023-04-06T23:42:10;1.70;;;1.40;;
16133;SDS011;8172;45.018;5.972;2023-04-06T23:47:18;1.83;;;1.40;;
16133;SDS011;8172;45.018;5.972;2023-04-06T23:52:26;1.53;;;1.23;;
16133;SDS011;8172;45.018;5.972;2023-04-06T23:57:37;2.37;;;1.40;;
